Time;durP1;ratioP1;P1;durP2;ratioP2;P2;SDS_P1;SDS_P2;PMS_P1;PMS_P2;Temp;Humidity;BMP_temperature;BMP_pressure;BME280_temperature;BME280_humidity;BME280_pressure;Samples;Min_cycle;Max_cycle;Signal;HPM_P1;HPM_P2
2021/04/16 00:00:52;;;;;;;8.40;6.32;;;-0.10;99.90;;;;;;6237209;28;20542;-78
2021/04/16 00:03:53;;;;;;;8.05;6.03;;;0.00;99.90;;;;;;6200463;28;20045;-78
2021/04/16 00:06:53;;;;;;;10.98;7.38;;;-0.20;99.90;;;;;;6205797;28;20030;-78
2021/04/16 00:09:54;;;;;;;8.40;6.60;;;-0.20;99.90;;;;;;6203285;28;20029;-78
2021/04/16 00:12:55;;;;;;;9.27;7.00;;;0.40;99.90;;;;;;6220469;28;20033;-78
2021/04/16 00:15:55;;;;;;;11.30;7.13;;;0.10;99.90;;;;;;6202483;28;20025;-78
2021/04/16 00:18:56;;;;;;;10.25;6.97;;;0.20;99.90;;;;;;6217478;28;20042;-78
2021/04/16 00:21:57;;;;;;;12.38;7.47;;;0.00;99.90;;;;;;6202690;28;20486;-78
2021/04/16 00:24:57;;;;;;;10.52;6.97;;;0.10;99.90;;;;;;6220242;28;20030;-78
2021/04/16 00:27:58;;;;;;;9.60;6.38;;;0.10;99.90;;;;;;6203548;28;20037;-78
2021/04/16 00:31:19;;;;;;;9.65;7.35;;;0.00;99.90;;;;;;6216435;28;20030;-78
2021/04/16 00:34:21;;;;;;;11.35;7.55;;;-0.20;99.90;;;;;;6202331;28;20041;-78
2021/04/16 00:37:21;;;;;;;9.68;6.30;;;-0.10;99.90;;;;;;6187154;28;20487;-78
2021/04/16 00:40:27;;;;;;;9.70;6.28;;;-0.20;99.90;;;;;;6219277;28;20128;-78
2021/04/16 00:43:30;;;;;;;8.52;7.00;;;0.20;99.90;;;;;;6187104;28;20502;-78
2021/04/16 00:46:42;;;;;;;8.30;6.10;;;0.00;99.90;;;;;;6217905;28;20056;-78
2021/04/16 00:49:47;;;;;;;7.93;6.50;;;-0.20;99.90;;;;;;6217804;28;20045;-78
2021/04/16 00:52:47;;;;;;;11.55;6.70;;;-0.10;99.90;;;;;;6217637;28;20424;-78
2021/04/16 00:55:49;;;;;;;9.10;6.60;;;-0.30;99.90;;;;;;6217983;28;20030;-78
2021/04/16 00:58:50;;;;;;;9.43;7.07;;;;;;;;;;6217061;28;20381;-78
2021/04/16 01:01:51;;;;;;;10.63;6.65;;;;;;;;;;6218807;28;20022;-78
2021/04/16 01:04:52;;;;;;;12.25;7.10;;;;;;;;;;6218974;28;20037;-78
2021/04/16 01:07:53;;;;;;;7.00;6.07;;;;;;;;;;6218931;28;20109;-78
2021/04/16 01:10:54;;;;;;;7.63;6.70;;;;;;;;;;6217489;28;20034;-78
2021/04/16 01:13:55;;;;;;;8.70;6.65;;;;;;;;;;6233570;28;20029;-78
2021/04/16 01:16:55;;;;;;;9.60;6.82;;;0.10;99.90;;;;;;6203541;28;20030;-78
2021/04/16 01:19:59;;;;;;;9.57;7.13;;;0.00;99.90;;;;;;6217112;28;20119;-78
2021/04/16 01:23:09;;;;;;;8.27;5.97;;;0.10;99.90;;;;;;6205543;28;20022;-78
2021/04/16 01:26:11;;;;;;;8.95;5.82;;;-0.10;99.90;;;;;;6216838;28;20087;-78
2021/04/16 01:29:11;;;;;;;11.38;7.68;;;0.40;98.80;;;;;;6217525;28;20057;-78
2021/04/16 01:32:24;;;;;;;8.60;6.07;;;2.50;99.90;;;;;;6218715;28;20033;-78
2021/04/16 01:35:28;;;;;;;9.80;6.47;;;0.10;95.90;;;;;;6216955;28;20033;-78
2021/04/16 01:38:29;;;;;;;11.75;7.63;;;;;;;;;;6216587;28;20042;-78
2021/04/16 01:41:30;;;;;;;8.25;6.05;;;-0.10;99.90;;;;;;6218181;28;20072;-78
2021/04/16 01:44:30;;;;;;;9.05;6.00;;;-0.10;99.90;;;;;;6196663;28;20437;-78
2021/04/16 01:47:31;;;;;;;7.05;5.90;;;-0.20;99.90;;;;;;6207411;28;20435;-78
2021/04/16 01:50:32;;;;;;;9.00;6.30;;;-0.30;99.90;;;;;;6214027;28;20481;-78
2021/04/16 01:53:32;;;;;;;9.35;6.40;;;0.20;99.90;;;;;;6218328;28;21006;-78
2021/04/16 01:56:33;;;;;;;8.20;5.53;;;0.20;99.90;;;;;;6216909;28;20080;-78
2021/04/16 01:59:35;;;;;;;11.13;6.18;;;0.40;99.90;;;;;;6216962;28;20042;-78
2021/04/16 02:02:35;;;;;;;8.48;6.25;;;0.40;99.90;;;;;;6216912;28;20408;-78
2021/04/16 02:05:36;;;;;;;8.15;5.60;;;0.00;99.90;;;;;;6216526;28;20116;-78
2021/04/16 02:08:36;;;;;;;9.40;6.30;;;0.00;99.90;;;;;;6218793;28;20100;-78
2021/04/16 02:11:38;;;;;;;9.30;6.78;;;0.10;99.90;;;;;;6218437;28;20053;-78
2021/04/16 02:14:38;;;;;;;7.68;5.88;;;;;;;;;;6195333;28;20498;-78
2021/04/16 02:17:39;;;;;;;6.63;5.88;;;0.10;99.90;;;;;;6220339;28;20113;-78
2021/04/16 02:20:40;;;;;;;7.15;5.15;;;0.10;99.90;;;;;;6214138;28;20033;-78
2021/04/16 02:23:41;;;;;;;8.02;6.63;;;-0.10;99.90;;;;;;6223055;28;20399;-78
2021/04/16 02:26:41;;;;;;;8.80;5.80;;;0.00;99.90;;;;;;6220846;28;20029;-78
2021/04/16 02:29:42;;;;;;;7.72;5.97;;;0.40;95.60;;;;;;6190076;28;20036;-77
2021/04/16 02:32:42;;;;;;;10.93;7.07;;;0.10;99.90;;;;;;6217553;28;20038;-80
2021/04/16 02:35:43;;;;;;;7.90;6.88;;;-0.10;99.90;;;;;;6204924;28;20030;-77
2021/04/16 02:38:44;;;;;;;10.63;6.32;;;-0.10;99.90;;;;;;6220686;28;20113;-77
2021/04/16 02:41:44;;;;;;;8.38;6.13;;;0.50;95.50;;;;;;6220311;28;20045;-78
2021/04/16 02:44:45;;;;;;;7.45;6.20;;;-0.30;99.90;;;;;;6222184;28;20034;-77
2021/04/16 02:47:45;;;;;;;8.88;5.93;;;-0.20;99.90;;;;;;6219641;28;20112;-78
2021/04/16 02:50:46;;;;;;;7.68;5.82;;;-0.20;99.90;;;;;;6216033;28;20044;-77
2021/04/16 02:53:47;;;;;;;6.57;5.63;;;-0.40;99.90;;;;;;6220576;28;20030;-77
2021/04/16 02:56:47;;;;;;;7.88;5.70;;;-0.30;99.90;;;;;;6220455;28;20064;-77
2021/04/16 02:59:48;;;;;;;7.55;5.68;;;-0.50;99.90;;;;;;6220243;28;20403;-77
2021/04/16 03:02:49;;;;;;;7.70;5.53;;;-0.60;99.90;;;;;;6207349;28;20117;-77
2021/04/16 03:05:51;;;;;;;7.55;5.60;;;-0.40;99.90;;;;;;6220195;28;20037;-77
2021/04/16 03:08:53;;;;;;;8.68;5.68;;;-0.30;99.90;;;;;;6220381;28;20026;-77
2021/04/16 03:11:53;;;;;;;7.68;5.78;;;-0.10;99.90;;;;;;6220476;28;20037;-77
2021/04/16 03:14:54;;;;;;;7.97;5.78;;;-0.40;99.90;;;;;;6221753;28;20040;-77
2021/04/16 03:17:54;;;;;;;6.68;5.35;;;1.30;96.60;;;;;;6214051;28;20191;-77
2021/04/16 03:20:55;;;;;;;7.97;5.40;;;1.80;96.90;;;;;;6213590;28;20032;-77
2021/04/16 03:23:56;;;;;;;10.02;5.70;;;-0.40;96.00;;;;;;6188785;28;20390;-77
2021/04/16 03:26:56;;;;;;;7.13;5.45;;;-0.20;96.00;;;;;;6204452;28;20032;-77
2021/04/16 03:29:57;;;;;;;6.45;5.70;;;-0.30;96.10;;;;;;6202851;28;20120;-77
2021/04/16 03:32:57;;;;;;;6.53;5.25;;;-0.40;99.90;;;;;;6219571;28;20080;-77
2021/04/16 03:35:58;;;;;;;9.07;5.93;;;-0.70;99.90;;;;;;6219912;28;20057;-77
2021/04/16 03:38:59;;;;;;;8.32;5.82;;;-0.80;99.90;;;;;;6217780;28;20136;-77
2021/04/16 03:41:59;;;;;;;9.63;5.65;;;-0.70;99.90;;;;;;6219466;28;20046;-77
2021/04/16 03:45:00;;;;;;;7.97;5.65;;;;;;;;;;6215619;28;20041;-77
2021/04/16 03:48:01;;;;;;;9.32;5.40;;;-0.90;99.90;;;;;;6221170;28;20396;-77
2021/04/16 03:51:02;;;;;;;8.65;5.55;;;-0.90;99.90;;;;;;6221471;28;20073;-77
2021/04/16 03:54:03;;;;;;;7.85;5.45;;;-0.80;99.90;;;;;;6215786;28;20404;-77
2021/04/16 03:57:04;;;;;;;6.97;5.40;;;-0.80;99.90;;;;;;6217951;28;20037;-77
2021/04/16 04:00:06;;;;;;;5.72;5.13;;;-1.00;99.90;;;;;;6219177;28;20042;-77
2021/04/16 04:03:08;;;;;;;6.53;5.72;;;-0.90;99.90;;;;;;6218687;28;20611;-77
2021/04/16 04:06:09;;;;;;;6.85;5.70;;;;;;;;;;6203245;28;20123;-77
2021/04/16 04:09:11;;;;;;;10.20;7.07;;;;;;;;;;6202402;28;20435;-77
2021/04/16 04:12:13;;;;;;;10.47;6.43;;;-0.70;99.90;;;;;;6220748;28;20026;-77
2021/04/16 04:15:14;;;;;;;9.13;6.63;;;;;;;;;;6213750;28;20056;-77
2021/04/16 04:18:15;;;;;;;8.35;5.90;;;;;;;;;;6211024;28;20032;-77
2021/04/16 04:21:16;;;;;;;6.78;5.85;;;;;;;;;;6218937;28;20030;-77
2021/04/16 04:24:17;;;;;;;8.98;6.00;;;-0.90;99.90;;;;;;6220601;28;20041;-77
2021/04/16 04:27:18;;;;;;;8.68;6.05;;;-0.50;99.90;;;;;;6187284;28;20101;-77
2021/04/16 04:30:21;;;;;;;10.63;7.80;;;-0.70;97.50;;;;;;6210414;28;20465;-77
2021/04/16 04:33:21;;;;;;;10.63;8.50;;;-0.80;96.70;;;;;;6214180;28;20587;-78
2021/04/16 04:36:22;;;;;;;7.70;5.70;;;0.60;96.90;;;;;;6218153;28;20045;-77
2021/04/16 04:39:24;;;;;;;7.07;5.40;;;0.90;97.20;;;;;;6217715;28;20127;-77
2021/04/16 04:42:24;;;;;;;6.68;5.63;;;-0.40;96.80;;;;;;6217894;28;20058;-78
2021/04/16 04:45:25;;;;;;;6.97;5.93;;;-1.00;99.90;;;;;;6218458;28;20045;-77
2021/04/16 04:48:26;;;;;;;12.60;8.13;;;-1.00;99.90;;;;;;6217407;28;20040;-77
2021/04/16 04:51:26;;;;;;;8.60;6.50;;;0.20;97.20;;;;;;6202294;28;20034;-77
2021/04/16 04:54:27;;;;;;;11.38;7.10;;;-0.80;99.90;;;;;;6217625;28;20064;-77
2021/04/16 04:57:28;;;;;;;57.80;24.83;;;-0.60;99.90;;;;;;6219360;28;20357;-77
2021/04/16 05:00:29;;;;;;;18.73;11.30;;;-0.20;96.70;;;;;;6195137;28;20065;-77
2021/04/16 05:03:29;;;;;;;10.23;7.20;;;-0.40;96.60;;;;;;6202710;28;20488;-77
2021/04/16 05:06:30;;;;;;;8.35;6.72;;;-0.30;96.40;;;;;;6204684;28;20037;-77
2021/04/16 05:09:30;;;;;;;7.63;6.70;;;1.20;96.80;;;;;;6217339;28;20167;-77
2021/04/16 05:12:31;;;;;;;10.88;8.30;;;-0.70;96.40;;;;;;6218011;28;20037;-77
2021/04/16 05:15:32;;;;;;;9.45;7.57;;;-0.10;99.90;;;;;;6201922;28;20112;-79
2021/04/16 05:18:32;;;;;;;10.57;8.35;;;0.50;99.90;;;;;;6219117;28;20041;-77
2021/04/16 05:21:36;;;;;;;8.90;7.43;;;1.40;99.90;;;;;;6219354;28;20026;-77
2021/04/16 05:24:37;;;;;;;10.18;7.82;;;1.70;94.50;;;;;;6202475;28;20026;-77
2021/04/16 05:27:37;;;;;;;9.07;6.93;;;2.80;99.00;;;;;;6201119;28;20445;-77
2021/04/16 05:30:38;;;;;;;10.18;7.68;;;;;;;;;;6217141;28;20520;-77
2021/04/16 05:33:39;;;;;;;11.40;7.07;;;;;;;;;;6233248;28;20030;-78
2021/04/16 05:36:40;;;;;;;7.15;6.03;;;;;;;;;;6212815;28;20030;-78
2021/04/16 05:39:41;;;;;;;8.32;6.78;;;4.80;94.00;;;;;;6218694;28;20038;-78
2021/04/16 05:42:42;;;;;;;8.50;6.72;;;4.60;81.50;;;;;;6216668;28;20057;-77
2021/04/16 05:45:42;;;;;;;11.45;7.20;;;5.00;80.70;;;;;;6217301;28;20034;-78
2021/04/16 05:48:43;;;;;;;9.48;8.45;;;6.70;79.70;;;;;;6216857;28;20038;-78
2021/04/16 05:51:43;;;;;;;10.20;8.55;;;5.80;78.60;;;;;;6207619;28;20584;-77
2021/04/16 05:54:44;;;;;;;8.55;7.45;;;6.00;91.30;;;;;;6222442;28;20029;-78
2021/04/16 05:57:45;;;;;;;10.10;8.85;;;6.40;82.20;;;;;;6205319;28;20026;-78
2021/04/16 06:00:45;;;;;;;8.40;6.80;;;6.80;90.10;;;;;;6224063;28;20357;-78
2021/04/16 06:03:46;;;;;;;7.45;6.50;;;7.00;90.30;;;;;;6206191;28;20055;-78
2021/04/16 06:06:47;;;;;;;9.43;6.28;;;7.30;88.70;;;;;;6206078;28;20165;-77
2021/04/16 06:09:48;;;;;;;7.22;6.22;;;7.40;87.60;;;;;;6206967;28;20030;-78
2021/04/16 06:12:48;;;;;;;9.57;6.70;;;7.60;86.60;;;;;;6206236;28;20056;-78
2021/04/16 06:15:49;;;;;;;8.30;6.30;;;8.00;86.40;;;;;;6221717;28;20064;-78
2021/04/16 06:18:50;;;;;;;6.93;6.22;;;;;;;;;;6205235;28;20061;-78
2021/04/16 06:21:51;;;;;;;10.00;6.63;;;;;;;;;;6221376;28;20026;-78
2021/04/16 06:24:52;;;;;;;9.13;6.60;;;8.40;86.70;;;;;;6223337;28;20075;-78
2021/04/16 06:27:53;;;;;;;9.32;6.10;;;;;;;;;;6189807;28;20519;-78
2021/04/16 06:30:54;;;;;;;8.48;6.13;;;8.40;84.30;;;;;;6221142;28;20034;-79
2021/04/16 06:33:56;;;;;;;7.25;6.35;;;8.80;77.30;;;;;;6221586;28;20038;-78
2021/04/16 06:36:56;;;;;;;8.90;6.22;;;8.40;71.10;;;;;;6220353;28;20030;-78
2021/04/16 06:39:57;;;;;;;11.27;7.18;;;7.60;86.10;;;;;;6221180;28;20109;-78
2021/04/16 06:42:58;;;;;;;9.82;7.75;;;8.00;79.20;;;;;;6220992;28;20435;-78
2021/04/16 06:45:59;;;;;;;14.18;10.80;;;8.40;67.40;;;;;;6221413;28;20080;-79
2021/04/16 06:49:01;;;;;;;7.43;6.60;;;8.50;83.80;;;;;;6220710;28;20076;-79
2021/04/16 06:52:10;;;;;;;7.85;6.55;;;8.60;84.20;;;;;;6221134;28;20099;-79
2021/04/16 06:55:26;;;;;;;7.47;5.78;;;8.50;82.90;;;;;;6205645;28;20030;-78
2021/04/16 06:58:50;;;;;;;7.78;6.13;;;8.30;83.90;;;;;;6222367;28;20073;-79
2021/04/16 07:02:04;;;;;;;8.43;6.18;;;8.40;83.90;;;;;;6204686;28;20029;-79
2021/04/16 07:05:10;;;;;;;6.70;5.70;;;8.00;84.60;;;;;;6215852;28;20038;-79
2021/04/16 07:08:28;;;;;;;6.07;4.78;;;7.70;83.80;;;;;;6189730;28;20033;-79
2021/04/16 07:11:35;;;;;;;6.28;5.38;;;7.70;67.30;;;;;;6217880;28;20025;-79
2021/04/16 07:14:41;;;;;;;6.13;5.15;;;9.00;83.90;;;;;;6220123;28;20033;-79
2021/04/16 07:17:43;;;;;;;6.55;5.43;;;9.00;81.40;;;;;;6207323;28;20440;-79
2021/04/16 07:20:44;;;;;;;6.28;5.40;;;;;;;;;;6219874;28;20571;-79
2021/04/16 07:23:46;;;;;;;6.00;4.85;;;10.00;73.00;;;;;;6221777;28;20117;-79
2021/04/16 07:26:49;;;;;;;5.65;4.88;;;10.10;74.10;;;;;;6220002;28;20068;-79
2021/04/16 07:29:53;;;;;;;5.13;4.63;;;10.80;75.60;;;;;;6219860;28;20507;-79
2021/04/16 07:32:54;;;;;;;7.53;4.70;;;10.90;56.50;;;;;;6219638;28;20057;-80
2021/04/16 07:36:13;;;;;;;6.63;4.68;;;11.30;72.70;;;;;;6188068;28;20021;-79
2021/04/16 07:39:13;;;;;;;6.05;4.95;;;11.40;55.30;;;;;;6221402;28;20630;-79
2021/04/16 07:42:16;;;;;;;4.40;4.00;;;11.40;53.90;;;;;;6221280;28;20057;-79
2021/04/16 07:45:25;;;;;;;4.20;3.80;;;10.80;54.30;;;;;;6196384;28;20543;-79
2021/04/16 07:48:35;;;;;;;5.05;4.43;;;11.80;72.20;;;;;;6235991;28;20042;-79
2021/04/16 07:51:35;;;;;;;4.30;3.90;;;11.90;54.00;;;;;;6203608;28;20038;-80
2021/04/16 07:54:36;;;;;;;6.55;4.28;;;12.60;50.70;;;;;;6205709;28;20025;-80
2021/04/16 07:58:06;;;;;;;5.93;3.90;;;12.80;50.10;;;;;;6203289;28;20372;-80
2021/04/16 08:01:26;;;;;;;4.47;3.92;;;13.30;47.90;;;;;;6221132;28;20041;-79
2021/04/16 08:04:34;;;;;;;6.05;3.85;;;13.30;66.30;;;;;;6191757;28;20109;-79
2021/04/16 08:07:36;;;;;;;3.80;3.30;;;13.30;45.60;;;;;;6207632;28;20037;-80
2021/04/16 08:10:38;;;;;;;4.45;3.70;;;13.50;48.80;;;;;;6197002;28;20796;-79
2021/04/16 08:13:42;;;;;;;4.05;3.40;;;14.10;47.60;;;;;;6218656;28;20030;-80
2021/04/16 08:16:42;;;;;;;4.90;3.67;;;13.90;61.30;;;;;;6221131;28;20507;-80
2021/04/16 08:19:43;;;;;;;4.13;3.65;;;13.70;47.10;;;;;;6216014;28;20041;-79
2021/04/16 08:22:43;;;;;;;5.38;3.80;;;13.50;48.80;;;;;;6218584;28;20519;-79
2021/04/16 08:25:49;;;;;;;4.65;3.50;;;12.70;77.90;;;;;;6190590;28;20028;-79
2021/04/16 08:28:54;;;;;;;4.47;3.63;;;12.80;78.50;;;;;;6215112;28;20030;-79
2021/04/16 08:32:01;;;;;;;4.15;3.33;;;11.90;64.20;;;;;;6190414;28;20030;-80
2021/04/16 08:35:25;;;;;;;4.05;3.58;;;12.20;63.70;;;;;;6218868;28;20538;-79
2021/04/16 08:38:28;;;;;;;7.03;3.85;;;12.00;67.30;;;;;;6243604;28;20022;-79
2021/04/16 08:41:31;;;;;;;4.65;3.60;;;12.40;66.30;;;;;;6244434;28;20068;-79
2021/04/16 08:44:42;;;;;;;3.80;3.30;;;13.00;61.90;;;;;;6233185;28;20086;-79
2021/04/16 08:47:52;;;;;;;3.90;3.50;;;13.70;65.70;;;;;;6249647;28;20030;-79
2021/04/16 08:50:55;;;;;;;3.97;3.55;;;13.40;59.60;;;;;;6249251;28;20026;-80
2021/04/16 08:54:06;;;;;;;3.75;3.42;;;13.00;57.40;;;;;;6228255;28;20038;-80
2021/04/16 08:57:20;;;;;;;3.47;3.10;;;13.10;61.60;;;;;;6235104;28;20456;-79
2021/04/16 09:00:31;;;;;;;4.38;3.70;;;13.20;59.70;;;;;;6218005;28;20396;-80
2021/04/16 09:03:49;;;;;;;3.92;3.45;;;13.00;60.70;;;;;;6214704;28;20385;-79
2021/04/16 09:06:57;;;;;;;3.88;3.20;;;12.80;44.50;;;;;;6186646;28;20472;-79
2021/04/16 09:09:59;;;;;;;3.42;3.08;;;13.00;49.00;;;;;;6186114;28;20080;-79
2021/04/16 09:13:00;;;;;;;3.92;3.30;;;12.80;64.90;;;;;;6217495;28;20361;-80
2021/04/16 09:16:17;;;;;;;4.05;3.10;;;12.70;47.70;;;;;;6217422;28;20030;-80
2021/04/16 09:19:27;;;;;;;3.85;3.33;;;12.30;46.80;;;;;;6229290;28;20084;-80
2021/04/16 09:22:35;;;;;;;5.70;3.45;;;12.50;47.60;;;;;;6233388;28;20026;-80
2021/04/16 09:25:48;;;;;;;5.05;4.18;;;13.00;46.40;;;;;;6216693;28;20259;-80
2021/04/16 09:28:55;;;;;;;4.03;3.30;;;13.10;43.30;;;;;;6217839;28;20027;-80
2021/04/16 09:32:01;;;;;;;4.13;3.50;;;13.30;48.30;;;;;;6216736;28;20029;-80
2021/04/16 09:35:04;;;;;;;4.00;3.10;;;14.30;44.00;;;;;;6201211;28;20033;-80
2021/04/16 09:38:30;;;;;;;3.80;3.42;;;15.10;44.40;;;;;;6217362;28;20034;-80
2021/04/16 09:41:33;;;;;;;3.80;3.13;;;13.80;42.10;;;;;;6193261;28;20061;-79
2021/04/16 09:44:35;;;;;;;3.53;2.80;;;13.60;45.40;;;;;;6180198;28;20100;-79
2021/04/16 09:47:44;;;;;;;3.45;3.13;;;14.30;45.10;;;;;;6193334;28;20034;-80
2021/04/16 09:50:46;;;;;;;3.22;2.92;;;12.30;59.10;;;;;;6176760;28;20626;-80
2021/04/16 09:54:22;;;;;;;3.30;3.00;;;11.80;46.80;;;;;;6193340;28;20035;-79
2021/04/16 09:57:40;;;;;;;4.13;3.45;;;11.40;49.80;;;;;;6166435;28;20112;-80
2021/04/16 10:01:08;;;;;;;6.30;2.90;;;11.10;50.50;;;;;;6152640;28;20035;-79
2021/04/16 10:04:13;;;;;;;5.10;3.08;;;11.60;48.00;;;;;;6134834;28;20094;-80
2021/04/16 10:07:13;;;;;;;3.92;2.75;;;13.00;49.00;;;;;;6135187;28;20121;-80
2021/04/16 10:10:32;;;;;;;3.47;3.00;;;13.30;46.50;;;;;;6150691;28;20102;-80
2021/04/16 10:13:35;;;;;;;3.58;3.00;;;13.00;41.80;;;;;;6150854;28;20027;-80
2021/04/16 10:16:35;;;;;;;4.03;3.50;;;13.80;45.80;;;;;;6134807;28;20034;-80
2021/04/16 10:19:37;;;;;;;4.45;3.00;;;14.90;44.30;;;;;;6134385;28;20058;-80
2021/04/16 10:22:38;;;;;;;3.85;3.10;;;16.10;42.90;;;;;;6135008;28;21019;-80
2021/04/16 12:38:21;;;;;;;4.75;3.47;;;10.10;52.10;;;;;;6219922;28;20030;-79
2021/04/16 12:41:32;;;;;;;4.00;3.60;;;10.70;70.30;;;;;;6203809;28;20435;-79
2021/04/16 12:44:49;;;;;;;5.68;3.70;;;10.80;53.30;;;;;;6218797;28;20443;-80
2021/04/16 12:48:12;;;;;;;4.47;3.58;;;11.80;66.20;;;;;;6215072;28;20435;-80
2021/04/16 12:51:53;;;;;;;4.35;3.60;;;12.00;63.80;;;;;;6219963;28;20033;-79
2021/04/16 12:54:54;;;;;;;4.43;3.67;;;;;;;;;;6221613;28;20042;-79
2021/04/16 12:58:00;;;;;;;4.72;4.10;;;11.80;77.40;;;;;;6203293;28;20464;-79
2021/04/16 13:01:02;;;;;;;5.90;3.58;;;11.90;59.80;;;;;;6185425;28;20492;-78
2021/04/16 13:04:02;;;;;;;3.92;3.53;;;11.60;49.10;;;;;;6218107;28;20030;-79
2021/04/16 13:07:03;;;;;;;4.40;3.70;;;11.40;47.90;;;;;;6201402;28;20100;-79
2021/04/16 13:10:09;;;;;;;6.80;4.07;;;11.10;48.20;;;;;;6217539;28;20538;-80
2021/04/16 13:13:10;;;;;;;4.65;3.72;;;10.70;64.60;;;;;;6217496;28;20025;-79
2021/04/16 13:16:10;;;;;;;4.03;3.42;;;10.70;50.60;;;;;;6217617;28;20030;-79
2021/04/16 13:19:25;;;;;;;4.05;3.65;;;10.70;52.10;;;;;;6185251;28;20046;-79
2021/04/16 13:22:27;;;;;;;4.00;3.60;;;11.20;50.40;;;;;;6217375;28;20036;-79
2021/04/16 13:25:29;;;;;;;4.13;3.72;;;11.60;51.50;;;;;;6217365;28;20025;-79
2021/04/16 13:28:29;;;;;;;4.43;3.90;;;11.10;50.40;;;;;;6217069;28;20041;-79
2021/04/16 13:31:32;;;;;;;4.32;3.92;;;10.80;52.80;;;;;;6216463;28;20060;-78
2021/04/16 13:34:33;;;;;;;3.95;3.55;;;10.50;51.20;;;;;;6217214;28;20026;-79
2021/04/16 13:37:33;;;;;;;4.63;3.55;;;10.40;68.00;;;;;;6216777;28;20431;-79
2021/04/16 13:40:34;;;;;;;4.93;3.67;;;10.60;54.20;;;;;;6200606;28;20046;-79
2021/04/16 13:43:35;;;;;;;4.75;4.10;;;11.00;55.40;;;;;;6214389;28;20034;-81
2021/04/16 13:46:37;;;;;;;5.43;3.55;;;10.40;51.40;;;;;;6185637;28;20053;-79
2021/04/16 13:49:39;;;;;;;4.97;4.18;;;10.30;52.60;;;;;;6216864;28;20037;-80
2021/04/16 13:52:40;;;;;;;4.20;3.58;;;10.40;53.00;;;;;;6217411;28;20357;-78
2021/04/16 13:55:40;;;;;;;3.75;3.30;;;10.60;52.70;;;;;;6216626;28;20033;-79
2021/04/16 13:58:41;;;;;;;4.72;3.50;;;10.60;51.60;;;;;;6216715;28;20137;-80
2021/04/16 14:01:42;;;;;;;3.80;3.40;;;;;;;;;;6218413;28;20570;-80
2021/04/16 14:08:43;;;;;;;4.50;3.72;;;10.70;51.60;;;;;;6220213;28;20378;-81
2021/04/16 14:11:44;;;;;;;3.92;3.47;;;11.00;52.50;;;;;;6198730;28;20535;-80
2021/04/16 14:14:46;;;;;;;4.75;3.83;;;;;;;;;;6221671;28;20022;-80
2021/04/16 14:17:56;;;;;;;5.47;4.15;;;11.10;48.50;;;;;;6216799;28;20030;-80
2021/04/16 14:20:57;;;;;;;4.18;3.60;;;11.10;50.70;;;;;;6221654;28;20041;-80
2021/04/16 14:23:58;;;;;;;4.88;3.70;;;11.00;51.40;;;;;;6221795;28;20542;-80
2021/04/16 14:26:58;;;;;;;3.97;3.50;;;10.40;53.80;;;;;;6221627;28;20084;-79
2021/04/16 14:29:59;;;;;;;4.43;3.58;;;10.40;54.80;;;;;;6221287;28;20021;-80
2021/04/16 14:33:00;;;;;;;5.20;3.80;;;9.80;72.10;;;;;;6191813;28;20029;-80
2021/04/16 14:36:01;;;;;;;6.45;3.65;;;10.00;54.40;;;;;;6189718;28;20034;-80
2021/04/16 14:39:04;;;;;;;4.75;3.88;;;10.40;55.00;;;;;;6221295;28;20092;-80
2021/04/16 14:42:05;;;;;;;4.97;3.50;;;10.60;52.00;;;;;;6196975;28;20081;-80
2021/04/16 14:45:08;;;;;;;4.60;3.87;;;10.60;62.10;;;;;;6221527;28;20132;-80
2021/04/16 14:48:09;;;;;;;5.55;4.05;;;10.60;49.80;;;;;;6197583;28;20393;-80
2021/04/16 14:51:10;;;;;;;3.72;3.33;;;10.70;51.60;;;;;;6220740;28;20030;-80
2021/04/16 14:54:28;;;;;;;5.65;3.60;;;11.00;50.60;;;;;;6205030;28;20081;-80
2021/04/16 14:57:35;;;;;;;5.95;3.75;;;11.30;50.90;;;;;;6174144;28;20121;-80
2021/04/16 15:00:36;;;;;;;4.88;4.00;;;11.40;53.80;;;;;;6222557;28;20393;-79
2021/04/16 15:03:39;;;;;;;5.05;4.20;;;10.80;54.00;;;;;;6220561;28;20105;-79
2021/04/16 15:06:40;;;;;;;4.80;3.92;;;10.20;55.70;;;;;;6206080;28;20026;-79
2021/04/16 15:09:49;;;;;;;7.20;4.10;;;9.90;75.40;;;;;;6204141;28;20065;-79
2021/04/16 15:12:50;;;;;;;4.85;4.32;;;9.50;70.70;;;;;;6220442;28;20080;-79
2021/04/16 15:15:51;;;;;;;6.72;4.95;;;9.40;57.90;;;;;;6188714;28;20030;-79
2021/04/16 15:18:51;;;;;;;4.20;3.72;;;9.40;73.60;;;;;;6214870;28;20084;-79
2021/04/16 15:21:54;;;;;;;4.63;3.60;;;9.60;73.40;;;;;;6197697;28;20437;-79
2021/04/16 15:24:57;;;;;;;6.93;3.65;;;10.10;73.30;;;;;;6203263;28;20033;-79
2021/04/16 15:28:06;;;;;;;4.65;4.10;;;10.40;55.70;;;;;;6195574;28;20079;-79
2021/04/16 15:31:14;;;;;;;6.00;4.10;;;9.90;79.10;;;;;;6189719;28;20468;-79
2021/04/16 15:47:19;;;;;;;6.28;5.25;;;9.00;90.30;;;;;;6219757;28;20042;-79
2021/04/16 15:50:22;;;;;;;8.15;5.38;;;8.80;71.80;;;;;;6202621;28;20036;-79
2021/04/16 15:53:23;;;;;;;7.38;5.10;;;8.80;72.40;;;;;;6219302;28;20038;-79
2021/04/16 15:56:32;;;;;;;4.15;3.65;;;9.00;58.00;;;;;;6187660;28;20084;-80
2021/04/16 15:59:34;;;;;;;6.95;4.55;;;8.90;57.90;;;;;;6192963;28;20141;-79
2021/04/16 16:02:35;;;;;;;;;;;9.00;57.50;;;;;;6194576;28;20065;-79
2021/04/16 16:05:36;;;;;;;5.40;4.50;;;9.10;58.30;;;;;;6203025;28;19906;-79
2021/04/16 16:08:37;;;;;;;5.68;4.22;;;9.00;58.00;;;;;;6188288;28;20029;-79
2021/04/16 16:11:54;;;;;;;5.07;3.75;;;9.10;59.20;;;;;;6218718;28;20040;-79
2021/04/16 16:15:01;;;;;;;4.47;3.55;;;8.60;59.60;;;;;;6202350;28;20087;-80
2021/04/16 16:18:02;;;;;;;5.80;4.38;;;9.00;73.80;;;;;;6202221;28;20096;-79
2021/04/16 16:21:03;;;;;;;5.43;4.15;;;9.00;61.80;;;;;;6192085;28;20042;-79
2021/04/16 16:24:04;;;;;;;5.32;4.28;;;8.60;78.20;;;;;;6186455;28;20044;-80
2021/04/16 16:27:06;;;;;;;6.78;4.28;;;8.60;60.60;;;;;;6215515;28;20037;-80
2021/04/16 16:30:08;;;;;;;5.60;4.32;;;8.30;60.60;;;;;;6187392;28;20068;-79
2021/04/16 16:33:09;;;;;;;7.35;4.47;;;;;;;;;;6202294;28;20033;-79
2021/04/16 16:36:10;;;;;;;6.53;4.40;;;7.60;81.90;;;;;;6218108;28;20084;-79
2021/04/16 16:39:11;;;;;;;5.80;4.65;;;8.00;65.60;;;;;;6198029;28;20438;-79
2021/04/16 16:42:45;;;;;;;6.68;4.40;;;7.80;65.30;;;;;;6202086;28;20111;-79
2021/04/16 16:45:45;;;;;;;6.00;4.57;;;8.00;81.00;;;;;;6111423;29;20043;-79
2021/04/16 16:48:46;;;;;;;6.00;4.47;;;7.70;80.50;;;;;;6104836;29;20479;-79
2021/04/16 16:51:48;;;;;;;5.30;4.22;;;7.90;63.90;;;;;;6120949;29;20043;-79
2021/04/16 16:54:48;;;;;;;6.50;4.50;;;8.10;63.70;;;;;;6120928;29;20928;-79
2021/04/16 16:57:49;;;;;;;5.60;4.90;;;;;;;;;;6133914;29;20068;-78
2021/04/16 17:01:27;;;;;;;4.97;4.47;;;7.70;81.30;;;;;;6141283;29;20046;-79
2021/04/16 17:04:28;;;;;;;6.07;4.72;;;9.60;62.80;;;;;;6143646;29;20130;-79
2021/04/16 17:07:29;;;;;;;6.35;5.05;;;;;;;;;;6143303;29;20035;-80
2021/04/16 17:10:29;;;;;;;5.57;4.45;;;7.60;60.50;;;;;;6144403;28;20041;-79
2021/04/16 17:13:30;;;;;;;8.35;4.95;;;8.00;65.00;;;;;;6143942;28;20039;-79
2021/04/16 17:16:31;;;;;;;7.78;4.97;;;7.70;65.50;;;;;;6133002;29;20046;-79
2021/04/16 17:19:31;;;;;;;6.55;5.00;;;7.70;65.80;;;;;;6143140;29;20056;-80
2021/04/16 17:22:32;;;;;;;5.32;4.82;;;7.50;65.70;;;;;;6177927;28;20046;-79
2021/04/16 17:25:35;;;;;;;6.03;4.93;;;7.30;82.90;;;;;;6198127;28;20030;-79
2021/04/16 17:28:35;;;;;;;;;;;7.80;66.30;;;;;;6186768;28;20076;-79
2021/04/16 17:31:36;;;;;;;5.45;4.72;;;7.00;84.20;;;;;;6219332;28;20343;-79
2021/04/16 17:34:37;;;;;;;6.57;4.72;;;7.30;67.40;;;;;;6204231;28;20469;-79
2021/04/16 17:37:38;;;;;;;6.78;4.90;;;6.80;79.50;;;;;;6194124;28;20030;-79
2021/04/16 17:40:38;;;;;;;5.18;4.68;;;6.90;83.50;;;;;;6200859;28;20045;-79
2021/04/16 17:43:40;;;;;;;5.63;5.00;;;7.00;66.90;;;;;;6217165;28;20495;-79
2021/04/16 17:46:41;;;;;;;6.82;4.88;;;7.00;67.50;;;;;;6218920;28;20034;-79
2021/04/16 17:49:42;;;;;;;5.70;5.05;;;6.40;68.20;;;;;;6213557;28;20503;-79
2021/04/16 17:52:42;;;;;;;8.35;5.82;;;6.50;86.20;;;;;;6216252;28;20045;-79
2021/04/16 17:55:43;;;;;;;7.40;5.10;;;6.20;69.60;;;;;;6194519;28;20154;-79
2021/04/16 17:58:44;;;;;;;5.72;5.13;;;6.20;70.10;;;;;;6225147;28;20037;-78
2021/04/16 18:01:44;;;;;;;6.28;5.65;;;5.70;94.70;;;;;;6215867;28;20456;-79
2021/04/16 18:04:45;;;;;;;7.10;5.85;;;5.90;95.10;;;;;;6217322;28;20452;-79
2021/04/16 18:07:48;;;;;;;6.60;5.63;;;5.70;93.60;;;;;;6202525;28;20036;-79
2021/04/16 18:10:49;;;;;;;8.43;5.75;;;;;;;;;;6185125;28;20357;-79
2021/04/16 18:13:50;;;;;;;7.05;5.25;;;;;;;;;;6218312;28;20026;-79
2021/04/16 18:16:51;;;;;;;6.60;5.20;;;5.50;83.30;;;;;;6216626;28;20029;-79
2021/04/16 18:19:57;;;;;;;8.05;5.05;;;5.40;89.90;;;;;;6216050;28;20463;-78
2021/04/16 18:23:25;;;;;;;6.10;5.10;;;5.60;73.50;;;;;;6216775;28;20034;-79
2021/04/16 18:26:31;;;;;;;6.45;5.30;;;5.50;84.90;;;;;;6206789;28;20042;-79
2021/04/16 18:29:32;;;;;;;5.32;4.82;;;;;;;;;;6216423;28;20026;-79
2021/04/16 18:32:33;;;;;;;7.30;5.10;;;5.80;69.80;;;;;;6217074;28;20030;-79
2021/04/16 18:35:35;;;;;;;5.50;4.85;;;5.70;73.00;;;;;;6216241;28;20034;-79
2021/04/16 18:38:41;;;;;;;7.57;4.95;;;5.60;72.00;;;;;;6205231;28;20042;-79
2021/04/16 18:41:44;;;;;;;6.20;4.70;;;5.50;72.60;;;;;;6183874;28;20552;-79